sensor_id;sensor_type;location;lat;lon;timestamp;P1;P2;P0
57411;PMS5003;43247;52.828;-8.980;2023-11-18T00:00:22;13;12;
57411;PMS5003;43247;52.828;-8.980;2023-11-18T00:01:22;11;11;
57411;PMS5003;43247;52.828;-8.980;2023-11-18T00:02:23;11;11;
57411;PMS5003;43247;52.828;-8.980;2023-11-18T00:03:23;14;13;
57411;PMS5003;43247;52.828;-8.980;2023-11-18T00:04:23;15;14;
57411;PMS5003;43247;52.828;-8.980;2023-11-18T00:05:23;12;11;
57411;PMS5003;43247;52.828;-8.980;2023-11-18T00:06:23;14;12;
57411;PMS5003;43247;52.828;-8.980;2023-11-18T00:07:23;11;11;
57411;PMS5003;43247;52.828;-8.980;2023-11-18T00:08:24;13;12;
57411;PMS5003;43247;52.828;-8.980;2023-11-18T00:09:24;10;10;
57411;PMS5003;43247;52.828;-8.980;2023-11-18T00:10:24;14;14;
57411;PMS5003;43247;52.828;-8.980;2023-11-18T00:11:24;13;12;
57411;PMS5003;43247;52.828;-8.980;2023-11-18T00:12:24;13;11;
57411;PMS5003;43247;52.828;-8.980;2023-11-18T00:13:25;14;14;
57411;PMS5003;43247;52.828;-8.980;2023-11-18T00:14:26;15;13;
57411;PMS5003;43247;52.828;-8.980;2023-11-18T00:15:25;12;12;
57411;PMS5003;43247;52.828;-8.980;2023-11-18T00:16:25;11;11;
57411;PMS5003;43247;52.828;-8.980;2023-11-18T00:17:26;14;13;
57411;PMS5003;43247;52.828;-8.980;2023-11-18T00:18:26;13;12;
57411;PMS5003;43247;52.828;-8.980;2023-11-18T00:19:26;13;13;
57411;PMS5003;43247;52.828;-8.980;2023-11-18T00:20:26;12;11;
57411;PMS5003;43247;52.828;-8.980;2023-11-18T00:21:26;13;13;
57411;PMS5003;43247;52.828;-8.980;2023-11-18T00:22:26;12;12;
57411;PMS5003;43247;52.828;-8.980;2023-11-18T00:23:27;13;13;
57411;PMS5003;43247;52.828;-8.980;2023-11-18T00:24:27;13;13;
57411;PMS5003;43247;52.828;-8.980;2023-11-18T00:25:27;14;13;
57411;PMS5003;43247;52.828;-8.980;2023-11-18T00:26:28;14;13;
57411;PMS5003;43247;52.828;-8.980;2023-11-18T00:27:28;12;11;
57411;PMS5003;43247;52.828;-8.980;2023-11-18T00:28:29;11;11;
57411;PMS5003;43247;52.828;-8.980;2023-11-18T00:29:28;11;11;
57411;PMS5003;43247;52.828;-8.980;2023-11-18T00:30:28;9;9;
57411;PMS5003;43247;52.828;-8.980;2023-11-18T00:31:29;10;9;
57411;PMS5003;43247;52.828;-8.980;2023-11-18T00:32:29;12;12;
57411;PMS5003;43247;52.828;-8.980;2023-11-18T00:33:29;14;14;
57411;PMS5003;43247;52.828;-8.980;2023-11-18T00:34:29;11;10;
57411;PMS5003;43247;52.828;-8.980;2023-11-18T00:35:29;12;10;
57411;PMS5003;43247;52.828;-8.980;2023-11-18T00:36:29;11;10;
57411;PMS5003;43247;52.828;-8.980;2023-11-18T00:37:30;9;9;
57411;PMS5003;43247;52.828;-8.980;2023-11-18T00:38:30;9;8;
57411;PMS5003;43247;52.828;-8.980;2023-11-18T00:39:30;8;8;
57411;PMS5003;43247;52.828;-8.980;2023-11-18T00:40:30;7;7;
57411;PMS5003;43247;52.828;-8.980;2023-11-18T00:41:30;8;8;
57411;PMS5003;43247;52.828;-8.980;2023-11-18T00:42:30;9;9;
57411;PMS5003;43247;52.828;-8.980;2023-11-18T00:43:31;9;9;
57411;PMS5003;43247;52.828;-8.980;2023-11-18T00:44:31;11;11;
57411;PMS5003;43247;52.828;-8.980;2023-11-18T00:45:31;10;10;
57411;PMS5003;43247;52.828;-8.980;2023-11-18T00:46:31;10;10;
57411;PMS5003;43247;52.828;-8.980;2023-11-18T00:47:31;10;8;
57411;PMS5003;43247;52.828;-8.980;2023-11-18T00:48:31;7;7;
57411;PMS5003;43247;52.828;-8.980;2023-11-18T00:49:32;6;6;
57411;PMS5003;43247;52.828;-8.980;2023-11-18T00:50:32;8;8;
57411;PMS5003;43247;52.828;-8.980;2023-11-18T00:51:32;8;8;
57411;PMS5003;43247;52.828;-8.980;2023-11-18T00:52:32;8;8;
57411;PMS5003;43247;52.828;-8.980;2023-11-18T00:53:32;7;7;
57411;PMS5003;43247;52.828;-8.980;2023-11-18T00:54:32;8;5;
57411;PMS5003;43247;52.828;-8.980;2023-11-18T00:55:33;6;6;
57411;PMS5003;43247;52.828;-8.980;2023-11-18T00:56:33;8;7;
57411;PMS5003;43247;52.828;-8.980;2023-11-18T00:57:34;7;6;
57411;PMS5003;43247;52.828;-8.980;2023-11-18T00:58:34;6;6;
57411;PMS5003;43247;52.828;-8.980;2023-11-18T00:59:34;7;7;
57411;PMS5003;43247;52.828;-8.980;2023-11-18T01:00:34;6;6;
57411;PMS5003;43247;52.828;-8.980;2023-11-18T01:01:34;5;5;
57411;PMS5003;43247;52.828;-8.980;2023-11-18T01:02:34;5;5;
57411;PMS5003;43247;52.828;-8.980;2023-11-18T01:03:34;4;4;
57411;PMS5003;43247;52.828;-8.980;2023-11-18T01:04:35;4;4;
57411;PMS5003;43247;52.828;-8.980;2023-11-18T01:05:35;6;6;
57411;PMS5003;43247;52.828;-8.980;2023-11-18T01:06:35;7;7;
57411;PMS5003;43247;52.828;-8.980;2023-11-18T01:07:35;6;6;
57411;PMS5003;43247;52.828;-8.980;2023-11-18T01:08:35;4;4;
57411;PMS5003;43247;52.828;-8.980;2023-11-18T01:09:35;4;4;
57411;PMS5003;43247;52.828;-8.980;2023-11-18T01:10:36;5;4;
57411;PMS5003;43247;52.828;-8.980;2023-11-18T01:11:36;6;6;
57411;PMS5003;43247;52.828;-8.980;2023-11-18T01:12:36;6;3;
57411;PMS5003;43247;52.828;-8.980;2023-11-18T01:13:36;4;4;
57411;PMS5003;43247;52.828;-8.980;2023-11-18T01:14:37;6;5;
57411;PMS5003;43247;52.828;-8.980;2023-11-18T01:15:36;4;4;
57411;PMS5003;43247;52.828;-8.980;2023-11-18T01:16:37;4;4;
57411;PMS5003;43247;52.828;-8.980;2023-11-18T01:17:37;4;4;
57411;PMS5003;43247;52.828;-8.980;2023-11-18T01:18:37;3;3;
57411;PMS5003;43247;52.828;-8.980;2023-11-18T01:19:37;3;3;
57411;PMS5003;43247;52.828;-8.980;2023-11-18T01:20:37;3;3;
57411;PMS5003;43247;52.828;-8.980;2023-11-18T01:21:37;3;3;
57411;PMS5003;43247;52.828;-8.980;2023-11-18T01:22:38;4;4;
57411;PMS5003;43247;52.828;-8.980;2023-11-18T01:23:38;3;3;
57411;PMS5003;43247;52.828;-8.980;2023-11-18T01:24:38;4;4;
57411;PMS5003;43247;52.828;-8.980;2023-11-18T01:25:38;2;2;
57411;PMS5003;43247;52.828;-8.980;2023-11-18T01:26:38;3;3;
57411;PMS5003;43247;52.828;-8.980;2023-11-18T01:27:38;2;2;
57411;PMS5003;43247;52.828;-8.980;2023-11-18T01:28:38;3;2;
57411;PMS5003;43247;52.828;-8.980;2023-11-18T01:29:39;3;3;
57411;PMS5003;43247;52.828;-8.980;2023-11-18T01:30:39;3;2;
57411;PMS5003;43247;52.828;-8.980;2023-11-18T01:31:39;4;2;
57411;PMS5003;43247;52.828;-8.980;2023-11-18T01:32:39;3;3;
57411;PMS5003;43247;52.828;-8.980;2023-11-18T01:33:39;3;3;
57411;PMS5003;43247;52.828;-8.980;2023-11-18T01:34:39;3;3;
57411;PMS5003;43247;52.828;-8.980;2023-11-18T01:35:40;3;3;
57411;PMS5003;43247;52.828;-8.980;2023-11-18T01:36:40;2;2;
57411;PMS5003;43247;52.828;-8.980;2023-11-18T01:37:40;2;2;
57411;PMS5003;43247;52.828;-8.980;2023-11-18T01:38:40;4;4;
57411;PMS5003;43247;52.828;-8.980;2023-11-18T01:39:40;1;1;
57411;PMS5003;43247;52.828;-8.980;2023-11-18T01:40:40;3;3;
57411;PMS5003;43247;52.828;-8.980;2023-11-18T01:41:41;4;3;
57411;PMS5003;43247;52.828;-8.980;2023-11-18T01:42:41;2;2;
57411;PMS5003;43247;52.828;-8.980;2023-11-18T01:43:41;3;3;
57411;PMS5003;43247;52.828;-8.980;2023-11-18T01:44:41;2;2;
57411;PMS5003;43247;52.828;-8.980;2023-11-18T01:45:41;2;2;
57411;PMS5003;43247;52.828;-8.980;2023-11-18T01:46:41;3;2;
57411;PMS5003;43247;52.828;-8.980;2023-11-18T01:47:42;2;2;
57411;PMS5003;43247;52.828;-8.980;2023-11-18T01:48:42;1;1;
57411;PMS5003;43247;52.828;-8.980;2023-11-18T01:49:42;1;1;
57411;PMS5003;43247;52.828;-8.980;2023-11-18T01:50:42;3;3;
57411;PMS5003;43247;52.828;-8.980;2023-11-18T01:51:42;2;2;
57411;PMS5003;43247;52.828;-8.980;2023-11-18T01:52:42;1;1;
57411;PMS5003;43247;52.828;-8.980;2023-11-18T01:53:42;5;3;
57411;PMS5003;43247;52.828;-8.980;2023-11-18T01:54:43;1;1;
57411;PMS5003;43247;52.828;-8.980;2023-11-18T01:55:43;2;2;
57411;PMS5003;43247;52.828;-8.980;2023-11-18T01:56:43;2;2;
57411;PMS5003;43247;52.828;-8.980;2023-11-18T01:57:43;2;2;
57411;PMS5003;43247;52.828;-8.980;2023-11-18T01:58:43;2;2;
57411;PMS5003;43247;52.828;-8.980;2023-11-18T01:59:43;3;3;
57411;PMS5003;43247;52.828;-8.980;2023-11-18T02:00:44;2;2;
57411;PMS5003;43247;52.828;-8.980;2023-11-18T02:01:45;2;2;
57411;PMS5003;43247;52.828;-8.980;2023-11-18T02:02:44;1;1;
57411;PMS5003;43247;52.828;-8.980;2023-11-18T02:03:44;2;2;
57411;PMS5003;43247;52.828;-8.980;2023-11-18T02:04:44;2;2;
57411;PMS5003;43247;52.828;-8.980;2023-11-18T02:05:44;1;1;
57411;PMS5003;43247;52.828;-8.980;2023-11-18T02:06:45;2;2;
57411;PMS5003;43247;52.828;-8.980;2023-11-18T02:07:45;2;2;
57411;PMS5003;43247;52.828;-8.980;2023-11-18T02:08:45;1;1;
57411;PMS5003;43247;52.828;-8.980;2023-11-18T02:09:45;2;2;
57411;PMS5003;43247;52.828;-8.980;2023-11-18T02:10:46;2;2;
57411;PMS5003;43247;52.828;-8.980;2023-11-18T02:11:53;2;2;
57411;PMS5003;43247;52.828;-8.980;2023-11-18T02:12:48;2;2;
57411;PMS5003;43247;52.828;-8.980;2023-11-18T02:13:47;3;2;
57411;PMS5003;43247;52.828;-8.980;2023-11-18T02:14:46;1;1;
57411;PMS5003;43247;52.828;-8.980;2023-11-18T02:15:46;2;2;
57411;PMS5003;43247;52.828;-8.980;2023-11-18T02:16:46;2;2;
57411;PMS5003;43247;52.828;-8.980;2023-11-18T02:17:46;1;1;
57411;PMS5003;43247;52.828;-8.980;2023-11-18T02:18:47;2;2;
57411;PMS5003;43247;52.828;-8.980;2023-11-18T02:19:47;1;1;
57411;PMS5003;43247;52.828;-8.980;2023-11-18T02:20:47;2;1;
57411;PMS5003;43247;52.828;-8.980;2023-11-18T02:21:47;2;2;
57411;PMS5003;43247;52.828;-8.980;2023-11-18T02:22:47;3;2;
57411;PMS5003;43247;52.828;-8.980;2023-11-18T02:23:47;1;1;
57411;PMS5003;43247;52.828;-8.980;2023-11-18T02:24:47;3;1;
57411;PMS5003;43247;52.828;-8.980;2023-11-18T02:25:48;1;1;
57411;PMS5003;43247;52.828;-8.980;2023-11-18T02:26:48;2;2;
57411;PMS5003;43247;52.828;-8.980;2023-11-18T02:27:48;2;1;
57411;PMS5003;43247;52.828;-8.980;2023-11-18T02:28:49;2;2;
57411;PMS5003;43247;52.828;-8.980;2023-11-18T02:29:49;1;1;
57411;PMS5003;43247;52.828;-8.980;2023-11-18T02:30:49;2;2;
57411;PMS5003;43247;52.828;-8.980;2023-11-18T02:31:50;3;1;
57411;PMS5003;43247;52.828;-8.980;2023-11-18T02:32:51;3;2;
57411;PMS5003;43247;52.828;-8.980;2023-11-18T02:33:51;2;2;
57411;PMS5003;43247;52.828;-8.980;2023-11-18T02:34:51;1;0;
57411;PMS5003;43247;52.828;-8.980;2023-11-18T02:35:51;2;2;
57411;PMS5003;43247;52.828;-8.980;2023-11-18T02:36:50;1;1;
57411;PMS5003;43247;52.828;-8.980;2023-11-18T02:37:50;3;2;
57411;PMS5003;43247;52.828;-8.980;2023-11-18T02:38:50;1;1;
57411;PMS5003;43247;52.828;-8.980;2023-11-18T02:39:52;1;1;
57411;PMS5003;43247;52.828;-8.980;2023-11-18T02:40:51;2;2;
57411;PMS5003;43247;52.828;-8.980;2023-11-18T02:41:51;2;2;
57411;PMS5003;43247;52.828;-8.980;2023-11-18T02:42:51;1;1;
57411;PMS5003;43247;52.828;-8.980;2023-11-18T02:43:51;3;3;
57411;PMS5003;43247;52.828;-8.980;2023-11-18T02:44:51;4;2;
57411;PMS5003;43247;52.828;-8.980;2023-11-18T02:45:51;1;1;
57411;PMS5003;43247;52.828;-8.980;2023-11-18T02:46:52;3;2;
57411;PMS5003;43247;52.828;-8.980;2023-11-18T02:47:52;1;1;
57411;PMS5003;43247;52.828;-8.980;2023-11-18T02:48:52;3;3;
57411;PMS5003;43247;52.828;-8.980;2023-11-18T02:49:53;2;2;
57411;PMS5003;43247;52.828;-8.980;2023-11-18T02:50:52;4;4;
57411;PMS5003;43247;52.828;-8.980;2023-11-18T02:51:52;5;3;
57411;PMS5003;43247;52.828;-8.980;2023-11-18T02:52:52;1;1;
57411;PMS5003;43247;52.828;-8.980;2023-11-18T02:53:53;6;4;
57411;PMS5003;43247;52.828;-8.980;2023-11-18T02:54:53;2;2;
57411;PMS5003;43247;52.828;-8.980;2023-11-18T02:55:53;3;3;
57411;PMS5003;43247;52.828;-8.980;2023-11-18T02:56:53;2;2;
57411;PMS5003;43247;52.828;-8.980;2023-11-18T02:57:53;2;2;
57411;PMS5003;43247;52.828;-8.980;2023-11-18T02:58:53;2;2;
57411;PMS5003;43247;52.828;-8.980;2023-11-18T02:59:54;5;3;
57411;PMS5003;43247;52.828;-8.980;2023-11-18T03:00:54;5;3;
57411;PMS5003;43247;52.828;-8.980;2023-11-18T03:01:54;2;2;
57411;PMS5003;43247;52.828;-8.980;2023-11-18T03:02:54;2;2;
57411;PMS5003;43247;52.828;-8.980;2023-11-18T03:03:54;2;2;
57411;PMS5003;43247;52.828;-8.980;2023-11-18T03:04:54;3;3;
57411;PMS5003;43247;52.828;-8.980;2023-11-18T03:05:55;4;2;
57411;PMS5003;43247;52.828;-8.980;2023-11-18T03:06:55;2;2;
57411;PMS5003;43247;52.828;-8.980;2023-11-18T03:07:55;3;3;
57411;PMS5003;43247;52.828;-8.980;2023-11-18T03:08:55;5;4;
57411;PMS5003;43247;52.828;-8.980;2023-11-18T03:09:55;3;3;
57411;PMS5003;43247;52.828;-8.980;2023-11-18T03:10:56;0;0;
57411;PMS5003;43247;52.828;-8.980;2023-11-18T03:11:56;3;3;
57411;PMS5003;43247;52.828;-8.980;2023-11-18T03:12:57;2;2;
57411;PMS5003;43247;52.828;-8.980;2023-11-18T03:13:57;4;3;
57411;PMS5003;43247;52.828;-8.980;2023-11-18T03:14:57;2;2;
57411;PMS5003;43247;52.828;-8.980;2023-11-18T03:15:57;3;3;
57411;PMS5003;43247;52.828;-8.980;2023-11-18T03:16:58;3;2;
57411;PMS5003;43247;52.828;-8.980;2023-11-18T03:17:58;2;2;
57411;PMS5003;43247;52.828;-8.980;2023-11-18T03:18:58;1;1;
57411;PMS5003;43247;52.828;-8.980;2023-11-18T03:19:58;2;2;
57411;PMS5003;43247;52.828;-8.980;2023-11-18T03:20:58;1;1;
57411;PMS5003;43247;52.828;-8.980;2023-11-18T03:21:58;5;3;
57411;PMS5003;43247;52.828;-8.980;2023-11-18T03:22:59;2;2;
57411;PMS5003;43247;52.828;-8.980;2023-11-18T03:23:59;7;5;
57411;PMS5003;43247;52.828;-8.980;2023-11-18T03:24:59;4;2;
57411;PMS5003;43247;52.828;-8.980;2023-11-18T03:25:59;1;1;
57411;PMS5003;43247;52.828;-8.980;2023-11-18T03:26:59;3;2;
57411;PMS5003;43247;52.828;-8.980;2023-11-18T03:27:59;2;2;
57411;PMS5003;43247;52.828;-8.980;2023-11-18T03:29:00;6;4;
57411;PMS5003;43247;52.828;-8.980;2023-11-18T03:30:00;4;4;
57411;PMS5003;43247;52.828;-8.980;2023-11-18T03:31:00;4;4;
57411;PMS5003;43247;52.828;-8.980;2023-11-18T03:32:00;1;1;
57411;PMS5003;43247;52.828;-8.980;2023-11-18T03:33:00;3;3;
57411;PMS5003;43247;52.828;-8.980;2023-11-18T03:34:00;3;1;
57411;PMS5003;43247;52.828;-8.980;2023-11-18T03:35:01;4;4;
57411;PMS5003;43247;52.828;-8.980;2023-11-18T03:36:01;2;2;
57411;PMS5003;43247;52.828;-8.980;2023-11-18T03:37:01;4;4;
57411;PMS5003;43247;52.828;-8.980;2023-11-18T03:38:01;5;4;
57411;PMS5003;43247;52.828;-8.980;2023-11-18T03:39:01;3;2;
57411;PMS5003;43247;52.828;-8.980;2023-11-18T03:40:03;2;2;
57411;PMS5003;43247;52.828;-8.980;2023-11-18T03:41:03;2;2;
57411;PMS5003;43247;52.828;-8.980;2023-11-18T03:42:03;4;4;
57411;PMS5003;43247;52.828;-8.980;2023-11-18T03:43:04;2;2;
57411;PMS5003;43247;52.828;-8.980;2023-11-18T03:44:04;2;1;
57411;PMS5003;43247;52.828;-8.980;2023-11-18T03:45:05;3;3;
57411;PMS5003;43247;52.828;-8.980;2023-11-18T03:46:05;1;1;
57411;PMS5003;43247;52.828;-8.980;2023-11-18T03:47:05;2;2;
57411;PMS5003;43247;52.828;-8.980;2023-11-18T03:48:05;2;1;
57411;PMS5003;43247;52.828;-8.980;2023-11-18T03:49:05;3;1;
57411;PMS5003;43247;52.828;-8.980;2023-11-18T03:50:06;3;3;
57411;PMS5003;43247;52.828;-8.980;2023-11-18T03:51:05;3;3;
57411;PMS5003;43247;52.828;-8.980;2023-11-18T03:52:06;4;3;
57411;PMS5003;43247;52.828;-8.980;2023-11-18T03:53:06;3;2;
57411;PMS5003;43247;52.828;-8.980;2023-11-18T03:54:06;0;0;
57411;PMS5003;43247;52.828;-8.980;2023-11-18T03:55:06;3;2;
57411;PMS5003;43247;52.828;-8.980;2023-11-18T03:56:07;2;2;
57411;PMS5003;43247;52.828;-8.980;2023-11-18T03:57:06;5;3;
57411;PMS5003;43247;52.828;-8.980;2023-11-18T03:58:07;1;1;
57411;PMS5003;43247;52.828;-8.980;2023-11-18T03:59:07;1;1;
57411;PMS5003;43247;52.828;-8.980;2023-11-18T04:00:07;3;2;
57411;PMS5003;43247;52.828;-8.980;2023-11-18T04:01:07;2;2;
57411;PMS5003;43247;52.828;-8.980;2023-11-18T04:02:07;3;2;
57411;PMS5003;43247;52.828;-8.980;2023-11-18T04:03:07;3;3;
57411;PMS5003;43247;52.828;-8.980;2023-11-18T04:04:08;2;2;
57411;PMS5003;43247;52.828;-8.980;2023-11-18T04:05:08;5;3;
57411;PMS5003;43247;52.828;-8.980;2023-11-18T04:06:08;3;3;
57411;PMS5003;43247;52.828;-8.980;2023-11-18T04:07:08;3;2;
57411;PMS5003;43247;52.828;-8.980;2023-11-18T04:08:08;2;2;
57411;PMS5003;43247;52.828;-8.980;2023-11-18T04:09:08;3;2;
57411;PMS5003;43247;52.828;-8.980;2023-11-18T04:10:09;6;3;
57411;PMS5003;43247;52.828;-8.980;2023-11-18T04:11:09;4;3;
57411;PMS5003;43247;52.828;-8.980;2023-11-18T04:12:09;4;3;
57411;PMS5003;43247;52.828;-8.980;2023-11-18T04:13:09;4;4;
57411;PMS5003;43247;52.828;-8.980;2023-11-18T04:14:09;2;2;
57411;PMS5003;43247;52.828;-8.980;2023-11-18T04:15:09;4;3;
57411;PMS5003;43247;52.828;-8.980;2023-11-18T04:16:10;3;3;
57411;PMS5003;43247;52.828;-8.980;2023-11-18T04:17:10;1;1;
57411;PMS5003;43247;52.828;-8.980;2023-11-18T04:18:10;2;2;
57411;PMS5003;43247;52.828;-8.980;2023-11-18T04:19:10;1;1;
57411;PMS5003;43247;52.828;-8.980;2023-11-18T04:20:11;4;3;
57411;PMS5003;43247;52.828;-8.980;2023-11-18T04:21:11;6;2;
57411;PMS5003;43247;52.828;-8.980;2023-11-18T04:22:10;6;3;
57411;PMS5003;43247;52.828;-8.980;2023-11-18T04:23:11;3;3;
57411;PMS5003;43247;52.828;-8.980;2023-11-18T04:24:11;2;2;
57411;PMS5003;43247;52.828;-8.980;2023-11-18T04:25:11;3;3;
57411;PMS5003;43247;52.828;-8.980;2023-11-18T04:26:11;3;2;
57411;PMS5003;43247;52.828;-8.980;2023-11-18T04:27:11;4;3;
57411;PMS5003;43247;52.828;-8.980;2023-11-18T04:28:11;4;4;
57411;PMS5003;43247;52.828;-8.980;2023-11-18T04:29:12;3;3;
57411;PMS5003;43247;52.828;-8.980;2023-11-18T04:30:12;2;2;
57411;PMS5003;43247;52.828;-8.980;2023-11-18T04:31:12;2;2;
57411;PMS5003;43247;52.828;-8.980;2023-11-18T04:32:12;3;3;
57411;PMS5003;43247;52.828;-8.980;2023-11-18T04:33:12;2;2;
57411;PMS5003;43247;52.828;-8.980;2023-11-18T04:34:12;2;2;
57411;PMS5003;43247;52.828;-8.980;2023-11-18T04:35:13;5;4;
57411;PMS5003;43247;52.828;-8.980;2023-11-18T04:36:13;1;1;
57411;PMS5003;43247;52.828;-8.980;2023-11-18T04:37:14;4;3;
57411;PMS5003;43247;52.828;-8.980;2023-11-18T04:38:14;3;3;
57411;PMS5003;43247;52.828;-8.980;2023-11-18T04:39:14;3;3;
57411;PMS5003;43247;52.828;-8.980;2023-11-18T04:40:14;2;2;
57411;PMS5003;43247;52.828;-8.980;2023-11-18T04:41:15;5;5;
57411;PMS5003;43247;52.828;-8.980;2023-11-18T04:42:14;2;2;
57411;PMS5003;43247;52.828;-8.980;2023-11-18T04:43:15;4;2;
57411;PMS5003;43247;52.828;-8.980;2023-11-18T04:44:15;3;1;
57411;PMS5003;43247;52.828;-8.980;2023-11-18T04:45:15;4;3;
57411;PMS5003;43247;52.828;-8.980;2023-11-18T04:46:15;3;3;
57411;PMS5003;43247;52.828;-8.980;2023-11-18T04:47:15;2;2;
57411;PMS5003;43247;52.828;-8.980;2023-11-18T04:48:15;4;3;
57411;PMS5003;43247;52.828;-8.980;2023-11-18T04:49:15;3;3;
57411;PMS5003;43247;52.828;-8.980;2023-11-18T04:50:16;3;3;
57411;PMS5003;43247;52.828;-8.980;2023-11-18T04:51:16;5;5;
57411;PMS5003;43247;52.828;-8.980;2023-11-18T04:52:16;4;4;
57411;PMS5003;43247;52.828;-8.980;2023-11-18T04:53:16;5;3;
57411;PMS5003;43247;52.828;-8.980;2023-11-18T04:54:17;2;1;
57411;PMS5003;43247;52.828;-8.980;2023-11-18T04:55:17;6;3;
57411;PMS5003;43247;52.828;-8.980;2023-11-18T04:56:17;4;4;
57411;PMS5003;43247;52.828;-8.980;2023-11-18T04:57:17;2;2;
57411;PMS5003;43247;52.828;-8.980;2023-11-18T04:58:17;3;3;
57411;PMS5003;43247;52.828;-8.980;2023-11-18T04:59:18;4;4;
57411;PMS5003;43247;52.828;-8.980;2023-11-18T05:00:18;3;2;
57411;PMS5003;43247;52.828;-8.980;2023-11-18T05:01:18;6;4;
57411;PMS5003;43247;52.828;-8.980;2023-11-18T05:02:18;4;4;
57411;PMS5003;43247;52.828;-8.980;2023-11-18T05:03:18;3;2;
57411;PMS5003;43247;52.828;-8.980;2023-11-18T05:04:19;5;4;
57411;PMS5003;43247;52.828;-8.980;2023-11-18T05:05:19;4;4;
57411;PMS5003;43247;52.828;-8.980;2023-11-18T05:06:19;3;3;
57411;PMS5003;43247;52.828;-8.980;2023-11-18T05:07:19;3;3;
57411;PMS5003;43247;52.828;-8.980;2023-11-18T05:08:19;7;5;
57411;PMS5003;43247;52.828;-8.980;2023-11-18T05:09:19;4;4;
57411;PMS5003;43247;52.828;-8.980;2023-11-18T05:10:19;5;5;
57411;PMS5003;43247;52.828;-8.980;2023-11-18T05:11:20;2;2;
57411;PMS5003;43247;52.828;-8.980;2023-11-18T05:12:20;3;2;
57411;PMS5003;43247;52.828;-8.980;2023-11-18T05:13:20;5;3;
57411;PMS5003;43247;52.828;-8.980;2023-11-18T05:14:20;2;2;
57411;PMS5003;43247;52.828;-8.980;2023-11-18T05:15:20;3;3;
57411;PMS5003;43247;52.828;-8.980;2023-11-18T05:16:20;4;3;
57411;PMS5003;43247;52.828;-8.980;2023-11-18T05:17:21;5;4;
57411;PMS5003;43247;52.828;-8.980;2023-11-18T05:18:21;4;4;
57411;PMS5003;43247;52.828;-8.980;2023-11-18T05:19:21;3;3;
57411;PMS5003;43247;52.828;-8.980;2023-11-18T05:20:21;4;3;
57411;PMS5003;43247;52.828;-8.980;2023-11-18T05:21:21;2;2;
57411;PMS5003;43247;52.828;-8.980;2023-11-18T05:22:21;3;2;
57411;PMS5003;43247;52.828;-8.980;2023-11-18T05:23:22;2;2;
57411;PMS5003;43247;52.828;-8.980;2023-11-18T05:24:22;3;3;
57411;PMS5003;43247;52.828;-8.980;2023-11-18T05:25:22;3;3;
57411;PMS5003;43247;52.828;-8.980;2023-11-18T05:26:22;2;2;
57411;PMS5003;43247;52.828;-8.980;2023-11-18T05:27:22;2;2;
57411;PMS5003;43247;52.828;-8.980;2023-11-18T05:28:22;3;3;
57411;PMS5003;43247;52.828;-8.980;2023-11-18T05:29:23;2;2;
57411;PMS5003;43247;52.828;-8.980;2023-11-18T05:30:23;2;1;
57411;PMS5003;43247;52.828;-8.980;2023-11-18T05:31:23;4;4;
57411;PMS5003;43247;52.828;-8.980;2023-11-18T05:32:23;1;1;
57411;PMS5003;43247;52.828;-8.980;2023-11-18T05:33:23;2;1;
57411;PMS5003;43247;52.828;-8.980;2023-11-18T05:34:23;1;1;
57411;PMS5003;43247;52.828;-8.980;2023-11-18T05:35:24;1;1;
57411;PMS5003;43247;52.828;-8.980;2023-11-18T05:36:24;3;3;
57411;PMS5003;43247;52.828;-8.980;2023-11-18T05:37:24;4;2;
57411;PMS5003;43247;52.828;-8.980;2023-11-18T05:38:24;3;3;
57411;PMS5003;43247;52.828;-8.980;2023-11-18T05:39:25;3;2;
57411;PMS5003;43247;52.828;-8.980;2023-11-18T05:40:25;2;2;
57411;PMS5003;43247;52.828;-8.980;2023-11-18T05:41:25;3;2;
57411;PMS5003;43247;52.828;-8.980;2023-11-18T05:42:25;2;2;
57411;PMS5003;43247;52.828;-8.980;2023-11-18T05:43:26;1;1;
57411;PMS5003;43247;52.828;-8.980;2023-11-18T05:44:26;2;2;
57411;PMS5003;43247;52.828;-8.980;2023-11-18T05:45:26;2;2;
57411;PMS5003;43247;52.828;-8.980;2023-11-18T05:46:26;6;4;
57411;PMS5003;43247;52.828;-8.980;2023-11-18T05:47:26;1;1;
57411;PMS5003;43247;52.828;-8.980;2023-11-18T05:48:26;3;3;
57411;PMS5003;43247;52.828;-8.980;2023-11-18T05:49:26;2;2;
57411;PMS5003;43247;52.828;-8.980;2023-11-18T05:50:26;2;2;
57411;PMS5003;43247;52.828;-8.980;2023-11-18T05:51:27;3;2;
57411;PMS5003;43247;52.828;-8.980;2023-11-18T05:52:27;3;3;
57411;PMS5003;43247;52.828;-8.980;2023-11-18T05:53:27;4;4;
57411;PMS5003;43247;52.828;-8.980;2023-11-18T05:54:27;3;3;
57411;PMS5003;43247;52.828;-8.980;2023-11-18T05:55:27;2;2;
57411;PMS5003;43247;52.828;-8.980;2023-11-18T05:56:28;5;4;
57411;PMS5003;43247;52.828;-8.980;2023-11-18T05:57:28;5;4;
57411;PMS5003;43247;52.828;-8.980;2023-11-18T05:58:28;3;3;
57411;PMS5003;43247;52.828;-8.980;2023-11-18T05:59:28;2;2;
57411;PMS5003;43247;52.828;-8.980;2023-11-18T06:00:28;2;2;
57411;PMS5003;43247;52.828;-8.980;2023-11-18T06:01:28;2;2;
57411;PMS5003;43247;52.828;-8.980;2023-11-18T06:02:28;3;3;
57411;PMS5003;43247;52.828;-8.980;2023-11-18T06:03:29;3;2;
57411;PMS5003;43247;52.828;-8.980;2023-11-18T06:04:29;3;3;
57411;PMS5003;43247;52.828;-8.980;2023-11-18T06:05:29;3;2;
57411;PMS5003;43247;52.828;-8.980;2023-11-18T06:06:29;2;2;
57411;PMS5003;43247;52.828;-8.980;2023-11-18T06:07:29;4;3;
57411;PMS5003;43247;52.828;-8.980;2023-11-18T06:08:29;1;1;
57411;PMS5003;43247;52.828;-8.980;2023-11-18T06:09:30;3;2;
57411;PMS5003;43247;52.828;-8.980;2023-11-18T06:10:30;3;3;
57411;PMS5003;43247;52.828;-8.980;2023-11-18T06:11:30;2;2;
57411;PMS5003;43247;52.828;-8.980;2023-11-18T06:12:30;2;2;
57411;PMS5003;43247;52.828;-8.980;2023-11-18T06:13:30;3;2;
57411;PMS5003;43247;52.828;-8.980;2023-11-18T06:14:30;3;3;
57411;PMS5003;43247;52.828;-8.980;2023-11-18T06:15:30;3;3;
57411;PMS5003;43247;52.828;-8.980;2023-11-18T06:16:31;2;2;
57411;PMS5003;43247;52.828;-8.980;2023-11-18T06:17:31;2;2;
57411;PMS5003;43247;52.828;-8.980;2023-11-18T06:18:31;5;2;
57411;PMS5003;43247;52.828;-8.980;2023-11-18T06:19:31;2;2;
57411;PMS5003;43247;52.828;-8.980;2023-11-18T06:20:33;3;3;
57411;PMS5003;43247;52.828;-8.980;2023-11-18T06:21:32;3;3;
57411;PMS5003;43247;52.828;-8.980;2023-11-18T06:22:32;4;4;
57411;PMS5003;43247;52.828;-8.980;2023-11-18T06:23:33;3;3;
57411;PMS5003;43247;52.828;-8.980;2023-11-18T06:24:33;3;3;
57411;PMS5003;43247;52.828;-8.980;2023-11-18T06:25:33;2;2;
57411;PMS5003;43247;52.828;-8.980;2023-11-18T06:26:33;4;3;
57411;PMS5003;43247;52.828;-8.980;2023-11-18T06:27:33;3;3;
57411;PMS5003;43247;52.828;-8.980;2023-11-18T06:28:33;3;3;
57411;PMS5003;43247;52.828;-8.980;2023-11-18T06:29:33;2;2;
57411;PMS5003;43247;52.828;-8.980;2023-11-18T06:30:34;3;3;
57411;PMS5003;43247;52.828;-8.980;2023-11-18T06:31:34;6;4;
57411;PMS5003;43247;52.828;-8.980;2023-11-18T06:32:34;6;4;
57411;PMS5003;43247;52.828;-8.980;2023-11-18T06:33:38;4;3;
57411;PMS5003;43247;52.828;-8.980;2023-11-18T06:34:35;7;7;
57411;PMS5003;43247;52.828;-8.980;2023-11-18T06:35:37;5;5;
57411;PMS5003;43247;52.828;-8.980;2023-11-18T06:36:35;2;2;
57411;PMS5003;43247;52.828;-8.980;2023-11-18T06:37:35;6;4;
57411;PMS5003;43247;52.828;-8.980;2023-11-18T06:38:35;4;2;
57411;PMS5003;43247;52.828;-8.980;2023-11-18T06:39:40;3;2;
57411;PMS5003;43247;52.828;-8.980;2023-11-18T06:40:36;6;3;
57411;PMS5003;43247;52.828;-8.980;2023-11-18T06:41:36;4;4;
57411;PMS5003;43247;52.828;-8.980;2023-11-18T06:42:36;3;2;
57411;PMS5003;43247;52.828;-8.980;2023-11-18T06:43:36;3;3;
57411;PMS5003;43247;52.828;-8.980;2023-11-18T06:44:36;4;3;